Time;durP1;ratioP1;P1;durP2;ratioP2;P2;SDS_P1;SDS_P2;PMS_P1;PMS_P2;Temp;Humidity;BMP_temperature;BMP_pressure;BME280_temperature;BME280_humidity;BME280_pressure;Samples;Min_cycle;Max_cycle;Signal;HPM_P1;HPM_P2
2022/05/28 00:00:29;;;;;;;12.93;2.38;;;11.60;99.90;;;;;;4960732;28;20080;-79
2022/05/28 00:02:55;;;;;;;11.05;2.42;;;11.60;99.90;;;;;;4965742;28;20054;-80
2022/05/28 00:05:21;;;;;;;13.25;2.40;;;11.50;99.90;;;;;;4983565;28;20045;-80
2022/05/28 00:07:47;;;;;;;9.75;2.25;;;11.40;99.90;;;;;;4985310;28;20095;-81
2022/05/28 00:10:17;;;;;;;8.10;2.03;;;11.20;99.90;;;;;;4989500;28;20427;-80
2022/05/28 00:12:44;;;;;;;8.18;1.58;;;11.10;99.90;;;;;;4959677;28;20058;-80
2022/05/28 00:15:10;;;;;;;10.05;2.05;;;11.00;99.90;;;;;;4990299;28;20867;-81
2022/05/28 00:17:36;;;;;;;11.30;2.03;;;10.90;99.90;;;;;;4986662;28;20522;-81
2022/05/28 00:20:04;;;;;;;11.15;1.98;;;11.00;99.90;;;;;;4971403;28;20132;-81
2022/05/28 00:22:30;;;;;;;9.82;2.03;;;10.90;99.90;;;;;;4986493;28;20124;-82
2022/05/28 00:25:06;;;;;;;6.97;1.90;;;10.90;99.90;;;;;;4972183;28;20075;-81
2022/05/28 00:27:32;;;;;;;9.43;1.48;;;10.90;99.90;;;;;;4964706;28;20672;-81
2022/05/28 00:29:58;;;;;;;9.07;2.10;;;10.90;99.90;;;;;;4985611;28;20041;-81
2022/05/28 00:32:24;;;;;;;13.25;2.20;;;10.80;99.90;;;;;;4968648;28;20049;-81
2022/05/28 00:34:50;;;;;;;9.52;1.83;;;10.80;99.90;;;;;;4998942;28;20132;-81
2022/05/28 00:37:17;;;;;;;11.07;1.90;;;10.80;99.90;;;;;;4991886;28;20444;-80
2022/05/28 00:39:45;;;;;;;11.55;2.25;;;10.80;99.90;;;;;;4946201;28;20124;-80
2022/05/28 00:42:12;;;;;;;9.77;1.88;;;10.70;99.90;;;;;;4998190;28;20068;-80
2022/05/28 00:44:38;;;;;;;12.57;2.10;;;10.70;99.90;;;;;;4961556;28;20080;-80
2022/05/28 00:47:04;;;;;;;12.30;2.22;;;10.70;99.90;;;;;;4966190;28;20357;-80
2022/05/28 00:49:32;;;;;;;10.45;1.77;;;10.60;99.90;;;;;;4976969;28;20041;-82
2022/05/28 00:52:04;;;;;;;7.75;1.65;;;10.60;99.90;;;;;;4970283;28;20045;-80
2022/05/28 00:54:35;;;;;;;9.10;1.50;;;10.60;99.90;;;;;;4964948;28;20044;-80
2022/05/28 00:57:03;;;;;;;11.97;1.90;;;10.60;99.90;;;;;;4968876;28;20152;-80
2022/05/28 00:59:30;;;;;;;5.60;1.50;;;10.50;99.90;;;;;;4985554;28;20398;-80
2022/05/28 01:02:04;;;;;;;10.23;1.85;;;10.50;99.90;;;;;;4976062;28;20052;-80
2022/05/28 01:04:54;;;;;;;6.35;1.48;;;10.40;99.90;;;;;;4997969;28;20049;-80
2022/05/28 01:07:29;;;;;;;12.30;1.95;;;10.30;99.90;;;;;;4993632;28;20507;-81
2022/05/28 01:10:21;;;;;;;10.32;1.90;;;10.30;99.90;;;;;;4975348;28;20521;-81
2022/05/28 01:13:17;;;;;;;9.52;1.90;;;10.20;99.90;;;;;;4994368;28;20447;-81
2022/05/28 01:15:53;;;;;;;8.82;1.50;;;10.20;99.90;;;;;;4971692;28;20355;-81
2022/05/28 01:18:39;;;;;;;8.88;2.13;;;10.10;99.90;;;;;;4983608;28;20050;-81
2022/05/28 01:21:24;;;;;;;7.90;1.60;;;10.00;99.90;;;;;;5001269;28;20061;-81
2022/05/28 01:24:18;;;;;;;10.18;2.00;;;9.90;99.90;;;;;;4975791;28;20128;-80
2022/05/28 01:27:01;;;;;;;10.98;2.20;;;9.90;99.90;;;;;;5003261;28;20045;-81
2022/05/28 01:29:34;;;;;;;10.23;1.80;;;9.90;99.90;;;;;;5018018;28;20083;-81
2022/05/28 01:32:01;;;;;;;10.07;1.63;;;9.90;99.90;;;;;;4988218;28;20053;-80
2022/05/28 01:34:29;;;;;;;12.07;2.28;;;9.80;99.90;;;;;;5003411;28;20052;-81
2022/05/28 01:36:56;;;;;;;11.57;2.13;;;9.80;99.90;;;;;;5008039;28;20450;-81
2022/05/28 01:39:26;;;;;;;5.45;1.50;;;9.70;99.90;;;;;;4982021;28;20087;-81
2022/05/28 01:41:54;;;;;;;10.77;1.92;;;9.70;99.90;;;;;;4984619;28;20057;-80
2022/05/28 01:44:23;;;;;;;8.73;1.80;;;9.60;99.90;;;;;;5032569;28;20053;-80
2022/05/28 01:46:50;;;;;;;7.07;1.85;;;9.60;99.90;;;;;;5008243;28;20495;-81
2022/05/28 01:49:20;;;;;;;13.07;2.00;;;9.60;99.90;;;;;;5012158;28;20048;-80
2022/05/28 01:51:54;;;;;;;10.15;2.13;;;9.50;99.90;;;;;;5003683;28;20045;-80
2022/05/28 01:54:32;;;;;;;9.40;1.90;;;9.50;99.90;;;;;;5035651;28;20045;-80
2022/05/28 01:56:59;;;;;;;11.35;2.47;;;9.50;99.90;;;;;;4998755;28;20446;-80
2022/05/28 01:59:31;;;;;;;11.57;3.15;;;9.50;99.90;;;;;;4987658;28;20049;-80
2022/05/28 02:02:00;;;;;;;17.05;2.75;;;9.50;99.90;;;;;;4998380;28;20056;-80
2022/05/28 02:04:28;;;;;;;13.48;1.98;;;9.50;99.90;;;;;;5005952;28;20044;-80
2022/05/28 02:06:57;;;;;;;10.80;2.47;;;9.40;99.90;;;;;;5001862;28;20045;-80
2022/05/28 02:09:28;;;;;;;9.30;2.53;;;9.50;99.90;;;;;;5005312;28;20049;-80
2022/05/28 02:12:01;;;;;;;9.85;2.50;;;9.40;99.90;;;;;;5004792;28;20118;-80
2022/05/28 02:14:36;;;;;;;8.80;1.85;;;9.40;99.90;;;;;;4991038;28;20049;-81
2022/05/28 02:17:27;;;;;;;8.93;1.77;;;9.40;99.90;;;;;;4976387;28;20049;-80
2022/05/28 02:20:05;;;;;;;9.43;2.00;;;9.40;99.90;;;;;;4988284;28;20408;-80
2022/05/28 02:23:13;;;;;;;9.45;3.08;;;9.30;99.90;;;;;;4985900;28;20558;-80
2022/05/28 02:25:52;;;;;;;13.00;2.33;;;9.30;99.90;;;;;;4984801;28;20442;-80
2022/05/28 02:28:23;;;;;;;15.45;2.30;;;9.30;99.90;;;;;;4970812;28;20550;-80
2022/05/28 02:30:52;;;;;;;9.93;1.92;;;9.30;99.90;;;;;;4971535;28;20052;-80
2022/05/28 02:33:19;;;;;;;13.38;1.92;;;9.30;99.90;;;;;;4987142;28;20459;-80
2022/05/28 02:35:49;;;;;;;10.50;1.70;;;9.30;99.90;;;;;;5019665;28;20049;-80
2022/05/28 02:38:17;;;;;;;12.13;2.60;;;9.30;99.90;;;;;;4965251;28;20088;-80
2022/05/28 02:40:43;;;;;;;10.82;2.13;;;9.30;99.90;;;;;;4980870;28;20090;-80
2022/05/28 02:43:11;;;;;;;8.25;2.33;;;9.20;99.90;;;;;;4979450;28;20175;-80
2022/05/28 02:45:39;;;;;;;8.30;1.88;;;9.20;99.90;;;;;;4986244;28;20092;-80
2022/05/28 02:48:05;;;;;;;14.52;2.85;;;9.20;99.90;;;;;;4996318;28;20091;-80
2022/05/28 02:50:31;;;;;;;11.48;1.95;;;9.10;99.90;;;;;;4987675;28;20198;-80
2022/05/28 02:52:57;;;;;;;12.77;2.50;;;9.10;99.90;;;;;;4964133;28;20041;-80
2022/05/28 02:55:24;;;;;;;10.38;2.15;;;9.10;99.90;;;;;;4986751;28;20593;-79
2022/05/28 02:57:50;;;;;;;10.65;2.22;;;9.10;99.90;;;;;;4973820;28;20136;-80
2022/05/28 03:00:17;;;;;;;9.88;2.28;;;9.10;99.90;;;;;;4965542;28;20388;-80
2022/05/28 03:02:44;;;;;;;12.93;2.70;;;9.00;99.90;;;;;;4989428;28;20148;-80
2022/05/28 03:05:15;;;;;;;8.73;2.17;;;9.00;99.90;;;;;;4999806;28;20103;-80
2022/05/28 03:07:42;;;;;;;12.70;2.60;;;9.00;99.90;;;;;;5002482;28;20052;-80
2022/05/28 03:10:09;;;;;;;7.25;1.90;;;9.00;99.90;;;;;;4972664;28;20049;-80
2022/05/28 03:12:40;;;;;;;11.30;2.00;;;9.00;99.90;;;;;;4980591;28;20061;-80
2022/05/28 03:15:08;;;;;;;13.98;2.47;;;9.00;99.90;;;;;;4983577;28;20045;-80
2022/05/28 03:17:34;;;;;;;9.90;2.25;;;9.00;99.90;;;;;;4979937;28;20170;-80
2022/05/28 03:20:01;;;;;;;9.65;2.00;;;9.00;99.90;;;;;;5006054;28;20036;-80
2022/05/28 03:22:28;;;;;;;11.63;2.15;;;9.10;99.90;;;;;;4998113;28;20048;-80
2022/05/28 03:24:54;;;;;;;12.15;2.00;;;9.00;99.90;;;;;;5000232;28;20402;-79
2022/05/28 03:27:21;;;;;;;9.63;2.03;;;9.00;99.90;;;;;;5005045;28;20056;-80
2022/05/28 03:29:47;;;;;;;11.73;2.15;;;9.00;99.90;;;;;;4987372;28;20041;-79
2022/05/28 03:32:15;;;;;;;10.00;2.22;;;9.00;99.90;;;;;;4970827;28;20044;-80
2022/05/28 03:34:41;;;;;;;11.75;2.47;;;9.00;99.90;;;;;;4985667;28;20063;-80
2022/05/28 03:37:07;;;;;;;10.10;2.28;;;9.00;99.90;;;;;;4968290;28;20049;-80
2022/05/28 03:39:33;;;;;;;8.43;2.10;;;9.00;99.90;;;;;;4984347;28;20520;-80
2022/05/28 03:42:00;;;;;;;13.95;2.40;;;9.00;99.90;;;;;;4989504;28;20455;-79
2022/05/28 03:44:26;;;;;;;10.27;2.38;;;9.00;99.90;;;;;;4978365;28;20498;-80
2022/05/28 03:46:52;;;;;;;15.57;2.88;;;9.00;99.90;;;;;;5009081;28;20520;-80
2022/05/28 03:49:31;;;;;;;9.45;2.10;;;9.00;99.90;;;;;;4964686;28;20794;-79
2022/05/28 03:51:57;;;;;;;14.57;2.50;;;9.00;99.90;;;;;;4992437;28;20569;-79
2022/05/28 03:54:23;;;;;;;11.38;2.03;;;9.00;99.90;;;;;;4984665;28;20046;-79
2022/05/28 03:56:55;;;;;;;9.77;2.28;;;9.00;99.90;;;;;;4967035;28;20260;-79
2022/05/28 03:59:21;;;;;;;11.45;2.70;;;9.00;99.90;;;;;;5003516;28;20519;-80
2022/05/28 04:01:47;;;;;;;10.63;2.28;;;9.00;99.90;;;;;;4982083;28;20135;-79
2022/05/28 04:04:13;;;;;;;14.52;2.63;;;9.00;99.90;;;;;;4972791;28;20045;-79
2022/05/28 04:06:40;;;;;;;14.30;2.40;;;9.00;99.90;;;;;;4986287;28;20419;-79
2022/05/28 04:09:09;;;;;;;11.50;2.15;;;8.90;99.90;;;;;;4986244;28;20505;-79
2022/05/28 04:11:38;;;;;;;12.27;2.50;;;9.00;99.90;;;;;;4986238;28;20037;-79
2022/05/28 04:14:05;;;;;;;9.63;2.63;;;9.00;99.90;;;;;;4956195;28;20460;-79
2022/05/28 04:16:32;;;;;;;11.13;2.20;;;9.00;99.90;;;;;;4971169;28;20506;-79
2022/05/28 04:18:58;;;;;;;11.10;2.22;;;9.00;99.90;;;;;;4985947;28;20045;-80
2022/05/28 04:21:24;;;;;;;17.65;2.75;;;9.10;99.90;;;;;;4985070;28;20145;-80
2022/05/28 04:23:51;;;;;;;14.73;3.10;;;9.10;99.90;;;;;;4985950;28;20048;-79
2022/05/28 04:26:17;;;;;;;8.88;2.25;;;9.20;99.90;;;;;;4973981;28;20052;-79
2022/05/28 04:28:46;;;;;;;18.00;2.75;;;9.30;99.90;;;;;;4961455;28;20112;-80
2022/05/28 04:31:12;;;;;;;11.70;2.28;;;9.40;99.90;;;;;;4985114;28;20503;-79
2022/05/28 04:33:38;;;;;;;17.30;2.65;;;9.50;99.90;;;;;;4985304;28;20368;-80
2022/05/28 04:36:04;;;;;;;11.65;2.75;;;9.60;99.90;;;;;;4977326;28;20595;-79
2022/05/28 04:38:30;;;;;;;14.60;2.85;;;9.60;99.90;;;;;;4969830;28;20049;-79
2022/05/28 04:40:57;;;;;;;20.35;4.20;;;9.60;99.90;;;;;;4964267;28;20144;-80
2022/05/28 04:43:23;;;;;;;11.43;3.22;;;9.70;99.90;;;;;;4982729;28;20080;-80
2022/05/28 04:45:49;;;;;;;17.23;2.85;;;9.70;99.90;;;;;;5002303;28;20110;-80
2022/05/28 04:48:15;;;;;;;11.60;4.10;;;9.80;99.90;;;;;;4960445;28;20048;-80
2022/05/28 04:50:42;;;;;;;13.35;2.38;;;9.80;99.90;;;;;;4985597;28;20127;-79
2022/05/28 04:53:08;;;;;;;13.60;3.03;;;9.90;99.90;;;;;;4984970;28;20789;-79
2022/05/28 04:55:35;;;;;;;10.75;2.40;;;10.00;99.90;;;;;;4972990;28;20077;-81
2022/05/28 04:58:01;;;;;;;10.90;2.92;;;10.00;99.90;;;;;;4982444;28;20072;-86
2022/05/28 05:00:28;;;;;;;12.50;2.80;;;10.20;99.90;;;;;;4991299;28;20049;-86
2022/05/28 05:02:54;;;;;;;17.27;3.10;;;10.20;99.90;;;;;;4987477;28;20044;-87
2022/05/28 05:05:21;;;;;;;14.05;3.65;;;10.30;99.90;;;;;;4991667;28;20049;-87
2022/05/28 05:07:49;;;;;;;11.75;2.78;;;10.40;99.90;;;;;;5001550;28;20547;-88
2022/05/28 05:10:16;;;;;;;10.00;2.75;;;10.60;99.90;;;;;;4989841;28;20040;-86
2022/05/28 05:12:45;;;;;;;12.73;2.90;;;10.70;99.90;;;;;;4986496;28;20049;-87
2022/05/28 05:15:15;;;;;;;14.27;2.53;;;10.80;99.90;;;;;;4995624;28;20410;-87
2022/05/28 05:17:41;;;;;;;11.00;2.70;;;10.90;99.90;;;;;;4975326;28;20033;-88
2022/05/28 05:20:10;;;;;;;12.00;2.65;;;10.80;99.90;;;;;;4986027;28;20052;-87
2022/05/28 05:22:36;;;;;;;16.50;2.80;;;10.70;99.90;;;;;;4983732;28;20045;-88
2022/05/28 05:25:04;;;;;;;15.27;2.92;;;10.70;99.90;;;;;;4962685;28;20041;-88
2022/05/28 05:27:30;;;;;;;12.18;2.58;;;10.80;99.90;;;;;;4993279;28;20033;-88
2022/05/28 05:29:58;;;;;;;17.10;3.38;;;11.00;99.90;;;;;;4992426;28;20531;-88
2022/05/28 05:32:30;;;;;;;9.98;2.30;;;11.10;99.90;;;;;;4988019;28;20041;-89
2022/05/28 05:34:56;;;;;;;16.52;3.03;;;11.10;99.90;;;;;;4980642;28;20497;-87
2022/05/28 05:37:23;;;;;;;12.38;2.75;;;11.20;99.90;;;;;;4986663;28;20055;-88
2022/05/28 05:39:49;;;;;;;16.55;3.03;;;11.20;99.90;;;;;;4989663;28;20056;-87
2022/05/28 05:42:16;;;;;;;11.30;2.63;;;11.20;99.90;;;;;;4998207;28;20045;-88
2022/05/28 05:44:42;;;;;;;15.45;3.42;;;11.00;99.90;;;;;;4975639;28;20059;-87
2022/05/28 05:47:09;;;;;;;13.02;2.70;;;11.00;99.90;;;;;;4997311;28;20041;-87
2022/05/28 05:49:38;;;;;;;11.57;2.55;;;11.10;99.90;;;;;;4969510;28;20380;-88
2022/05/28 05:52:08;;;;;;;12.90;3.17;;;11.10;99.90;;;;;;4972394;28;21639;-88
2022/05/28 05:54:37;;;;;;;11.85;3.20;;;11.10;99.90;;;;;;4981759;28;20037;-88
2022/05/28 05:57:06;;;;;;;10.63;2.50;;;11.20;99.90;;;;;;4985374;28;20041;-88
2022/05/28 05:59:32;;;;;;;14.25;2.80;;;11.20;99.90;;;;;;4986425;28;20053;-87
2022/05/28 06:01:59;;;;;;;11.18;2.67;;;11.20;99.90;;;;;;4971150;28;20041;-87
2022/05/28 06:04:25;;;;;;;61.55;42.85;;;11.30;99.90;;;;;;4981426;28;20131;-90
2022/05/28 06:06:54;;;;;;;15.48;5.05;;;11.50;99.90;;;;;;5007634;28;20280;-86
2022/05/28 06:09:22;;;;;;;14.15;3.15;;;11.70;99.90;;;;;;4995307;28;20077;-88
2022/05/28 06:11:48;;;;;;;18.50;8.27;;;11.80;99.90;;;;;;4966611;28;20555;-85
2022/05/28 06:14:15;;;;;;;10.40;2.30;;;11.70;99.90;;;;;;4960615;28;20498;-86
2022/05/28 06:16:41;;;;;;;12.70;4.05;;;11.70;99.90;;;;;;5013514;28;20126;-84
2022/05/28 06:19:08;;;;;;;15.07;3.30;;;11.80;99.90;;;;;;4996405;28;20088;-86
2022/05/28 06:21:35;;;;;;;14.10;3.42;;;11.90;99.90;;;;;;5006155;28;20541;-85
2022/05/28 06:24:02;;;;;;;16.00;3.92;;;12.00;99.90;;;;;;4976329;28;20115;-85
2022/05/28 06:26:29;;;;;;;11.77;2.50;;;12.10;99.90;;;;;;4988606;28;20198;-85
2022/05/28 06:29:01;;;;;;;8.57;1.98;;;12.00;99.90;;;;;;4981806;28;20060;-84
2022/05/28 06:31:51;;;;;;;8.85;1.80;;;12.00;99.90;;;;;;4972933;28;20513;-81
2022/05/28 06:34:18;;;;;;;120.00;100.95;;;12.10;99.90;;;;;;4990030;28;20037;-75
2022/05/28 06:36:45;;;;;;;13.85;5.80;;;12.10;99.90;;;;;;4963364;28;20040;-77
2022/05/28 06:39:11;;;;;;;9.40;2.55;;;12.20;99.90;;;;;;4978449;28;20052;-77
2022/05/28 06:41:37;;;;;;;6.80;2.25;;;12.60;99.90;;;;;;4968843;28;20045;-78
2022/05/28 06:44:03;;;;;;;7.90;2.13;;;13.00;99.90;;;;;;4977674;28;20057;-78
2022/05/28 06:46:29;;;;;;;10.32;2.88;;;13.10;99.90;;;;;;4968570;28;20051;-78
2022/05/28 06:48:55;;;;;;;13.15;5.45;;;13.20;99.90;;;;;;4997928;28;20044;-78
2022/05/28 06:51:21;;;;;;;13.27;2.65;;;13.10;99.90;;;;;;4988376;28;20498;-84
2022/05/28 06:53:48;;;;;;;8.88;2.38;;;12.80;99.90;;;;;;4973872;28;20069;-82
2022/05/28 06:56:16;;;;;;;8.48;2.50;;;12.60;99.90;;;;;;4998250;28;20792;-80
2022/05/28 06:58:43;;;;;;;9.43;1.98;;;12.90;99.90;;;;;;4992374;28;20110;-80
2022/05/28 07:01:11;;;;;;;8.55;2.53;;;13.30;99.90;;;;;;4966058;28;20045;-80
2022/05/28 07:03:39;;;;;;;8.95;2.20;;;13.50;99.90;;;;;;4998875;28;20151;-80
2022/05/28 07:06:06;;;;;;;11.80;2.72;;;13.40;99.90;;;;;;4998564;28;20568;-80
2022/05/28 07:08:32;;;;;;;13.57;2.63;;;13.50;99.90;;;;;;4985666;28;20507;-80
2022/05/28 07:11:00;;;;;;;18.73;3.22;;;13.60;99.90;;;;;;4958463;28;20041;-80
2022/05/28 07:13:29;;;;;;;11.75;2.92;;;13.40;99.90;;;;;;4993766;28;20072;-81
2022/05/28 07:15:55;;;;;;;9.82;2.85;;;13.10;99.90;;;;;;5004638;28;20427;-82
2022/05/28 07:18:21;;;;;;;16.02;4.25;;;12.60;99.90;;;;;;5004574;28;20102;-82
2022/05/28 07:20:48;;;;;;;42.05;32.33;;;12.50;99.90;;;;;;5005334;28;20554;-80
2022/05/28 07:23:33;;;;;;;14.60;4.25;;;12.30;99.90;;;;;;4988457;28;20057;-81
2022/05/28 07:26:11;;;;;;;23.60;12.52;;;12.10;99.90;;;;;;4988585;28;20536;-82
2022/05/28 07:28:39;;;;;;;16.58;6.78;;;12.10;99.90;;;;;;5023340;28;20140;-87
2022/05/28 07:31:12;;;;;;;10.27;3.63;;;11.80;99.90;;;;;;5006502;28;20064;-85
2022/05/28 07:33:47;;;;;;;10.45;3.80;;;11.80;99.90;;;;;;5019410;28;20037;-85
2022/05/28 07:36:19;;;;;;;12.13;5.22;;;11.70;99.90;;;;;;4990827;28;20051;-85
2022/05/28 07:38:52;;;;;;;39.80;25.17;;;11.60;99.90;;;;;;5007714;28;20116;-83
2022/05/28 07:41:26;;;;;;;13.73;4.28;;;11.60;99.90;;;;;;5006258;28;20418;-85
2022/05/28 07:43:56;;;;;;;13.15;3.78;;;11.60;99.90;;;;;;4989964;28;20044;-86
2022/05/28 07:46:28;;;;;;;8.43;2.58;;;11.50;99.90;;;;;;4988663;28;20190;-86
2022/05/28 07:48:56;;;;;;;;;;;11.60;99.90;;;;;;5021549;28;20132;-86
2022/05/28 07:51:22;;;;;;;17.20;6.05;;;11.60;99.90;;;;;;4990205;28;20256;-86
2022/05/28 07:53:56;;;;;;;10.48;3.17;;;11.70;99.90;;;;;;4991277;28;20076;-86
2022/05/28 07:56:23;;;;;;;9.80;2.80;;;12.10;99.90;;;;;;5003026;28;20136;-87
2022/05/28 07:58:59;;;;;;;9.10;2.35;;;12.80;99.90;;;;;;5009806;28;20580;-86
2022/05/28 08:01:35;;;;;;;11.95;2.58;;;12.80;99.90;;;;;;4988491;28;20127;-87
2022/05/28 08:04:04;;;;;;;11.90;2.40;;;13.00;99.90;;;;;;5022376;28;20158;-84
2022/05/28 08:06:33;;;;;;;74.70;55.53;;;13.60;99.90;;;;;;5008307;28;20542;-96
2022/05/28 08:09:03;;;;;;;11.75;2.75;;;14.10;99.90;;;;;;5001938;28;20042;-90
2022/05/28 08:11:29;;;;;;;14.38;4.28;;;14.50;99.90;;;;;;5023058;28;20044;-86
2022/05/28 08:13:58;;;;;;;12.48;2.70;;;14.90;99.90;;;;;;5000040;28;20053;-85
2022/05/28 08:16:27;;;;;;;10.75;3.50;;;15.10;99.90;;;;;;4990892;28;20056;-86
2022/05/28 08:18:54;;;;;;;18.50;9.32;;;15.40;99.90;;;;;;4986527;28;20513;-86
2022/05/28 08:24:22;;;;;;;13.88;2.70;;;16.10;99.90;;;;;;4986996;28;20103;-84
2022/05/28 08:26:48;;;;;;;10.88;2.80;;;16.40;99.90;;;;;;4989187;28;20044;-84
2022/05/28 08:29:14;;;;;;;12.65;3.50;;;16.20;99.90;;;;;;5005856;28;20040;-82
2022/05/28 08:31:40;;;;;;;10.23;3.72;;;15.70;99.90;;;;;;5020413;28;20118;-83
2022/05/28 08:34:07;;;;;;;14.23;4.88;;;15.40;99.90;;;;;;5003043;28;20064;-83
2022/05/28 08:36:33;;;;;;;13.73;3.33;;;15.00;99.90;;;;;;5020194;28;20444;-83
2022/05/28 08:38:59;;;;;;;13.05;2.58;;;14.70;99.90;;;;;;5005814;28;20137;-83
2022/05/28 08:41:45;;;;;;;13.57;3.28;;;14.70;99.90;;;;;;4987914;28;20533;-81
2022/05/28 08:44:31;;;;;;;39.72;27.75;;;15.00;99.90;;;;;;5002354;28;20449;-85
2022/05/28 08:47:22;;;;;;;11.90;3.08;;;14.80;99.90;;;;;;5036512;28;20049;-85
2022/05/28 08:49:51;;;;;;;17.40;6.25;;;15.20;99.90;;;;;;4975191;28;20041;-84
2022/05/28 08:52:33;;;;;;;15.57;6.18;;;15.10;99.90;;;;;;4987366;28;20056;-84
2022/05/28 08:55:17;;;;;;;13.00;3.35;;;15.10;99.90;;;;;;5001648;28;20045;-86
2022/05/28 08:57:59;;;;;;;11.20;3.63;;;15.50;99.90;;;;;;5017018;28;21068;-85
2022/05/28 09:00:31;;;;;;;13.95;3.20;;;16.00;99.90;;;;;;4986947;28;20045;-83
2022/05/28 09:03:13;;;;;;;13.63;3.17;;;15.50;99.90;;;;;;5001002;28;20510;-85
2022/05/28 09:06:20;;;;;;;16.25;3.55;;;15.00;99.90;;;;;;5006871;28;20118;-85
2022/05/28 09:08:52;;;;;;;17.42;6.80;;;14.50;99.90;;;;;;5007591;28;20499;-90
2022/05/28 09:12:14;;;;;;;13.57;3.00;;;14.40;99.90;;;;;;4990754;28;20143;-88
2022/05/28 09:14:41;;;;;;;15.05;7.07;;;14.50;99.90;;;;;;4988086;28;20042;-91
2022/05/28 09:17:27;;;;;;;11.68;4.00;;;15.30;99.90;;;;;;4949586;28;20120;-92
2022/05/28 09:20:02;;;;;;;17.70;3.03;;;16.30;99.90;;;;;;5006529;28;20049;-90
2022/05/28 09:22:38;;;;;;;16.80;3.08;;;16.30;99.90;;;;;;4985631;28;20102;-91
2022/05/28 09:25:23;;;;;;;15.52;3.35;;;16.30;99.90;;;;;;4986791;28;20065;-91
2022/05/28 09:28:29;;;;;;;10.43;2.72;;;15.60;99.90;;;;;;4986075;28;20053;-83
2022/05/28 09:31:59;;;;;;;14.00;3.13;;;15.20;99.90;;;;;;4975412;28;20506;-90
2022/05/28 09:34:49;;;;;;;13.98;2.80;;;15.30;99.90;;;;;;4988441;28;20072;-90
2022/05/28 09:37:33;;;;;;;11.80;2.60;;;15.90;99.90;;;;;;5006406;28;20494;-88
2022/05/28 09:40:07;;;;;;;11.82;2.97;;;16.80;99.90;;;;;;5010735;28;20044;-91
2022/05/28 09:42:45;;;;;;;14.00;3.22;;;17.50;99.90;;;;;;5011759;28;20045;-91
2022/05/28 09:45:25;;;;;;;20.15;10.05;;;17.10;99.90;;;;;;4991251;28;20118;-91
2022/05/28 09:47:53;;;;;;;13.15;2.78;;;16.50;99.90;;;;;;4993436;28;20545;-92
2022/05/28 09:50:37;;;;;;;17.27;3.65;;;16.90;99.90;;;;;;5024144;28;20090;-90
2022/05/28 09:55:58;;;;;;;12.55;3.35;;;16.60;99.90;;;;;;5001580;28;20040;-83
2022/05/28 09:58:40;;;;;;;10.95;3.22;;;16.70;99.90;;;;;;5037701;28;20056;-85
2022/05/28 10:01:16;;;;;;;13.82;3.75;;;16.70;99.90;;;;;;4991274;28;20049;-90
2022/05/28 10:06:31;;;;;;;15.70;3.38;;;16.50;99.90;;;;;;5000740;28;20521;-89
2022/05/28 10:08:58;;;;;;;13.68;2.75;;;15.90;99.90;;;;;;5002175;28;20075;-91
2022/05/28 10:11:27;;;;;;;12.10;2.97;;;15.80;99.90;;;;;;5009630;28;20098;-89
2022/05/28 10:14:00;;;;;;;13.73;3.13;;;15.30;99.90;;;;;;4978955;28;20612;-91
2022/05/28 10:16:38;;;;;;;14.88;3.03;;;15.20;99.90;;;;;;4971998;28;20348;-90
2022/05/28 10:19:16;;;;;;;13.43;2.58;;;15.00;99.90;;;;;;4976786;28;20048;-87
2022/05/28 10:21:50;;;;;;;12.90;3.15;;;15.00;99.90;;;;;;4995998;28;20488;-89
2022/05/28 10:24:19;;;;;;;13.23;3.50;;;15.00;99.90;;;;;;5005339;28;20056;-89
2022/05/28 10:27:22;;;;;;;12.00;3.22;;;15.20;99.90;;;;;;4980443;28;20048;-90
2022/05/28 10:29:51;;;;;;;14.52;3.03;;;16.20;99.90;;;;;;5002555;28;20036;-91
2022/05/28 10:32:26;;;;;;;14.23;2.75;;;16.40;99.90;;;;;;4982233;28;20045;-90
2022/05/28 10:35:03;;;;;;;13.57;2.58;;;16.60;99.90;;;;;;4986738;28;20410;-90
2022/05/28 10:37:31;;;;;;;10.35;2.58;;;16.70;99.90;;;;;;4993499;28;20079;-90
2022/05/28 10:40:09;;;;;;;13.20;2.75;;;16.80;99.90;;;;;;5013229;28;20041;-90
2022/05/28 10:42:39;;;;;;;48.10;36.88;;;16.70;99.90;;;;;;4989415;28;20506;-88
2022/05/28 10:45:07;;;;;;;15.45;5.80;;;16.50;99.90;;;;;;5006004;28;20040;-90
2022/05/28 10:48:07;;;;;;;15.75;3.47;;;15.70;99.90;;;;;;5004764;28;20056;-88
2022/05/28 10:51:04;;;;;;;14.55;6.63;;;15.10;99.90;;;;;;4990600;28;20045;-88
2022/05/28 10:53:52;;;;;;;17.55;8.18;;;14.70;99.90;;;;;;5009611;28;20490;-88
2022/05/28 10:56:21;;;;;;;12.80;3.33;;;14.60;99.90;;;;;;4995956;28;20045;-88
2022/05/28 10:59:11;;;;;;;11.23;3.40;;;14.70;99.90;;;;;;4995952;28;20076;-88
2022/05/28 11:01:56;;;;;;;9.60;2.13;;;14.80;99.90;;;;;;4977777;28;20685;-89
2022/05/28 11:04:41;;;;;;;13.57;3.45;;;14.90;99.90;;;;;;4978443;28;20470;-88
2022/05/28 11:07:26;;;;;;;10.73;2.70;;;14.80;99.90;;;;;;5015986;28;20423;-89
2022/05/28 11:10:12;;;;;;;10.65;2.92;;;15.00;99.90;;;;;;4976882;28;20041;-88
2022/05/28 11:13:08;;;;;;;11.65;2.70;;;14.80;99.90;;;;;;4986994;28;20053;-88
2022/05/28 11:16:02;;;;;;;10.27;2.67;;;15.10;99.90;;;;;;4999839;28;20037;-88
2022/05/28 11:19:04;;;;;;;14.73;2.97;;;15.80;99.90;;;;;;4991217;28;20045;-87
2022/05/28 11:21:54;;;;;;;14.55;2.28;;;15.80;99.90;;;;;;5019717;28;20056;-88
2022/05/28 11:24:47;;;;;;;8.60;2.72;;;16.00;99.90;;;;;;5002189;28;20048;-87
2022/05/28 11:27:32;;;;;;;17.50;7.07;;;16.10;99.90;;;;;;5006296;28;20569;-85
2022/05/28 11:30:06;;;;;;;16.20;5.88;;;15.90;99.90;;;;;;5003291;28;20463;-87
2022/05/28 11:32:41;;;;;;;12.50;3.17;;;15.90;99.90;;;;;;5024012;28;20045;-88
2022/05/28 11:35:45;;;;;;;11.18;3.58;;;16.70;99.90;;;;;;5007015;28;20094;-90
2022/05/28 11:38:35;;;;;;;12.45;3.35;;;16.80;99.90;;;;;;5019994;28;20037;-86
2022/05/28 11:41:26;;;;;;;6.65;1.65;;;16.70;99.90;;;;;;5005757;28;20060;-88
2022/05/28 11:44:23;;;;;;;9.57;2.10;;;17.40;99.90;;;;;;5007284;28;20191;-87
2022/05/28 11:47:01;;;;;;;8.82;2.53;;;18.30;97.60;;;;;;5007251;28;20048;-87
2022/05/28 11:52:55;;;;;;;8.27;2.10;;;19.20;99.40;;;;;;5019978;28;20041;-88
2022/05/28 11:55:29;;;;;;;9.93;3.03;;;19.60;98.30;;;;;;4991040;28;20048;-89
2022/05/28 11:58:44;;;;;;;9.43;2.42;;;20.00;95.40;;;;;;5016432;28;20520;-87
2022/05/28 12:01:51;;;;;;;7.38;2.53;;;20.20;98.60;;;;;;4996321;28;20572;-81
2022/05/28 12:04:18;;;;;;;9.63;2.63;;;19.90;74.60;;;;;;4972334;28;20075;-80
2022/05/28 12:07:08;;;;;;;12.30;2.40;;;18.80;92.30;;;;;;5003034;28;20499;-80
2022/05/28 12:09:40;;;;;;;10.63;2.92;;;18.80;99.90;;;;;;5005363;28;20224;-80
2022/05/28 12:12:19;;;;;;;11.10;3.65;;;18.60;99.90;;;;;;5004636;28;20072;-80
2022/05/28 12:15:00;;;;;;;12.18;2.55;;;17.80;99.90;;;;;;5000625;28;20402;-80
2022/05/28 12:17:28;;;;;;;10.85;2.55;;;17.30;99.90;;;;;;5004770;28;20051;-80
2022/05/28 12:20:02;;;;;;;10.20;2.30;;;17.40;99.90;;;;;;4992521;28;20502;-79
2022/05/28 12:22:53;;;;;;;13.40;2.85;;;17.20;99.90;;;;;;4969575;28;20048;-80
2022/05/28 12:25:31;;;;;;;7.53;2.08;;;16.80;99.90;;;;;;4978577;28;20536;-79
2022/05/28 12:27:57;;;;;;;11.32;2.55;;;16.80;99.90;;;;;;4975227;28;20041;-80
2022/05/28 12:30:48;;;;;;;11.63;2.70;;;17.60;99.90;;;;;;4994340;28;20044;-80
2022/05/28 12:33:32;;;;;;;8.95;2.20;;;18.30;99.90;;;;;;4971565;28;20048;-80
2022/05/28 12:36:17;;;;;;;10.00;2.40;;;18.10;99.90;;;;;;5021509;28;20049;-80
2022/05/28 12:38:49;;;;;;;12.35;2.45;;;18.80;99.90;;;;;;4987502;28;20049;-80
2022/05/28 12:41:25;;;;;;;8.32;2.08;;;19.20;99.90;;;;;;4983594;28;20067;-80
2022/05/28 12:44:05;;;;;;;8.55;1.85;;;19.40;96.30;;;;;;4986646;28;20403;-80
2022/05/28 12:46:44;;;;;;;6.85;1.80;;;19.10;95.80;;;;;;4968351;28;20411;-80
2022/05/28 12:49:28;;;;;;;10.95;2.30;;;19.60;87.80;;;;;;4985084;28;20342;-81
2022/05/28 12:52:14;;;;;;;6.68;1.90;;;19.80;93.60;;;;;;4971547;28;20045;-80
2022/05/28 12:54:42;;;;;;;7.35;2.30;;;19.20;83.20;;;;;;5004632;28;20490;-81
2022/05/28 12:57:38;;;;;;;8.20;2.13;;;19.40;99.10;;;;;;4982099;28;20055;-79
2022/05/28 13:00:42;;;;;;;7.90;2.38;;;18.90;99.90;;;;;;4983051;28;20126;-81
2022/05/28 13:03:14;;;;;;;9.13;1.95;;;18.10;99.90;;;;;;4984368;28;20049;-81
2022/05/28 13:05:43;;;;;;;;;;;17.70;99.90;;;;;;4979024;28;20479;-80
2022/05/28 13:08:14;;;;;;;8.10;2.17;;;17.20;99.90;;;;;;4986797;28;20367;-80
2022/05/28 13:11:21;;;;;;;11.00;2.08;;;16.90;99.90;;;;;;4986848;28;20068;-80
2022/05/28 13:14:25;;;;;;;7.97;2.42;;;17.90;99.90;;;;;;5019271;28;20140;-80
2022/05/28 13:17:03;;;;;;;8.73;2.35;;;18.40;99.00;;;;;;5019925;28;20059;-81
2022/05/28 13:19:35;;;;;;;7.40;2.03;;;17.40;99.90;;;;;;5009044;28;20576;-80
2022/05/28 13:22:10;;;;;;;9.70;2.95;;;16.90;99.90;;;;;;5009108;28;20084;-81
2022/05/28 13:25:16;;;;;;;11.55;2.50;;;16.50;99.90;;;;;;5002564;28;20076;-81
2022/05/28 13:28:10;;;;;;;7.45;2.10;;;16.10;99.90;;;;;;4990710;28;20053;-80